Time;durP1;ratioP1;P1;durP2;ratioP2;P2;SDS_P1;SDS_P2;PMS_P1;PMS_P2;Temp;Humidity;BMP_temperature;BMP_pressure;BME280_temperature;BME280_humidity;BME280_pressure;Samples;Min_cycle;Max_cycle;Signal;HPM_P1;HPM_P2
2022/05/13 00:00:16;;;;;;;4.63;3.05;;;8.20;99.90;;;;;;5012130;28;20099;-75
2022/05/13 00:02:43;;;;;;;7.07;3.67;;;8.20;99.90;;;;;;5005748;28;20037;-75
2022/05/13 00:05:09;;;;;;;6.20;3.35;;;8.20;99.90;;;;;;5030597;28;20045;-76
2022/05/13 00:07:35;;;;;;;4.78;3.38;;;8.30;99.90;;;;;;4996609;28;20434;-77
2022/05/13 00:10:05;;;;;;;5.28;3.55;;;8.30;99.90;;;;;;5013678;28;20087;-75
2022/05/13 00:12:34;;;;;;;5.15;3.47;;;8.30;99.90;;;;;;5010448;28;20034;-75
2022/05/13 00:15:01;;;;;;;5.03;3.28;;;8.30;99.90;;;;;;5004590;28;20096;-75
2022/05/13 00:17:27;;;;;;;5.03;3.42;;;8.30;99.90;;;;;;4996708;28;20044;-75
2022/05/13 00:19:54;;;;;;;5.35;2.75;;;8.30;99.90;;;;;;4996800;28;20051;-75
2022/05/13 00:22:20;;;;;;;3.88;3.10;;;8.30;99.90;;;;;;5013953;28;20044;-75
2022/05/13 00:24:47;;;;;;;5.70;3.03;;;8.40;99.90;;;;;;5013399;28;20077;-75
2022/05/13 00:27:15;;;;;;;4.45;2.83;;;8.40;99.90;;;;;;5007957;28;20120;-75
2022/05/13 00:29:40;;;;;;;4.35;2.88;;;8.50;99.90;;;;;;5015703;28;20519;-75
2022/05/13 00:32:09;;;;;;;4.07;2.78;;;8.50;99.90;;;;;;5015157;28;20034;-75
2022/05/13 00:34:35;;;;;;;3.20;2.70;;;8.60;99.90;;;;;;4996018;28;20506;-75
2022/05/13 00:37:00;;;;;;;6.28;3.25;;;8.60;99.90;;;;;;4996119;28;20045;-75
2022/05/13 00:39:26;;;;;;;6.55;2.92;;;8.70;99.90;;;;;;4996150;28;20033;-75
2022/05/13 00:41:53;;;;;;;4.75;2.60;;;8.80;99.90;;;;;;5012471;28;20083;-76
2022/05/13 00:44:21;;;;;;;3.25;2.20;;;8.80;99.90;;;;;;5014453;28;20519;-75
2022/05/13 00:46:47;;;;;;;5.55;2.78;;;8.90;99.90;;;;;;5015255;28;20087;-75
2022/05/13 00:49:15;;;;;;;5.53;2.50;;;9.00;99.90;;;;;;5002829;28;20046;-75
2022/05/13 00:51:47;;;;;;;4.60;2.78;;;9.00;99.90;;;;;;5013339;28;20116;-75
2022/05/13 00:54:14;;;;;;;3.72;2.30;;;9.00;99.90;;;;;;4997044;28;20049;-75
2022/05/13 00:56:46;;;;;;;5.78;2.70;;;9.10;99.90;;;;;;5015471;28;20527;-76
2022/05/13 00:59:17;;;;;;;4.55;2.35;;;9.20;99.90;;;;;;5018366;28;20090;-75
2022/05/13 01:01:43;;;;;;;4.70;2.25;;;9.20;99.90;;;;;;5004256;28;20084;-75
2022/05/13 01:04:12;;;;;;;5.57;2.47;;;9.30;99.90;;;;;;4997751;28;20452;-75
2022/05/13 01:06:41;;;;;;;5.70;2.70;;;9.50;99.90;;;;;;5009132;28;20046;-75
2022/05/13 01:09:06;;;;;;;4.00;2.35;;;9.50;99.90;;;;;;5008604;28;20048;-75
2022/05/13 01:11:36;;;;;;;3.70;2.13;;;9.50;99.90;;;;;;5008612;28;20037;-75
2022/05/13 01:14:05;;;;;;;4.00;2.10;;;9.60;99.90;;;;;;5002337;28;20049;-75
2022/05/13 01:19:24;;;;;;;3.55;2.20;;;9.70;99.90;;;;;;5006060;28;20471;-75
2022/05/13 01:21:50;;;;;;;3.88;2.25;;;9.70;99.90;;;;;;5028714;28;20053;-75
2022/05/13 01:24:20;;;;;;;3.92;2.00;;;9.80;99.90;;;;;;5000051;28;20052;-77
2022/05/13 01:26:46;;;;;;;4.95;2.10;;;9.80;99.90;;;;;;5015674;28;20048;-77
2022/05/13 01:29:11;;;;;;;5.22;2.03;;;9.80;99.90;;;;;;5016383;28;20042;-77
2022/05/13 01:31:39;;;;;;;5.40;2.20;;;9.90;99.90;;;;;;5000212;28;20049;-77
2022/05/13 01:34:11;;;;;;;4.03;2.00;;;9.90;99.90;;;;;;5014556;28;20075;-77
2022/05/13 01:36:39;;;;;;;5.30;2.10;;;9.90;99.90;;;;;;5021116;28;20073;-77
2022/05/13 01:39:08;;;;;;;4.60;2.17;;;9.90;99.90;;;;;;5015761;28;20119;-76
2022/05/13 01:41:34;;;;;;;5.32;2.65;;;9.90;99.90;;;;;;5000278;28;20045;-77
2022/05/13 01:44:00;;;;;;;4.50;2.30;;;10.00;99.90;;;;;;5015932;28;20423;-77
2022/05/13 01:46:26;;;;;;;4.75;2.28;;;10.00;99.90;;;;;;5015334;28;20037;-77
2022/05/13 01:48:53;;;;;;;5.75;2.38;;;10.00;99.90;;;;;;5004156;28;20041;-77
2022/05/13 01:51:19;;;;;;;5.38;1.95;;;10.00;99.90;;;;;;5032744;28;20077;-77
2022/05/13 01:53:45;;;;;;;3.78;2.10;;;10.00;99.90;;;;;;5008051;28;20029;-77
2022/05/13 01:56:12;;;;;;;3.42;2.40;;;9.90;99.90;;;;;;5015561;28;20373;-77
2022/05/13 01:58:38;;;;;;;3.88;2.30;;;10.00;99.90;;;;;;4997294;28;20099;-77
2022/05/13 02:01:07;;;;;;;4.43;2.38;;;9.90;99.90;;;;;;5017140;28;20049;-78
2022/05/13 02:03:45;;;;;;;4.90;2.38;;;9.90;99.90;;;;;;4999114;28;20048;-77
2022/05/13 02:06:20;;;;;;;3.65;2.13;;;9.90;99.90;;;;;;4999171;28;20040;-77
2022/05/13 02:08:46;;;;;;;4.70;2.40;;;9.90;99.90;;;;;;5014902;28;20033;-76
2022/05/13 02:11:12;;;;;;;4.88;2.30;;;10.00;99.90;;;;;;5013813;28;20033;-76
2022/05/13 02:13:39;;;;;;;4.45;2.40;;;10.00;99.90;;;;;;5008041;28;20444;-78
2022/05/13 02:16:04;;;;;;;4.57;2.30;;;10.00;99.90;;;;;;5000922;28;20431;-77
2022/05/13 02:18:31;;;;;;;3.85;2.08;;;10.00;99.90;;;;;;4998014;28;20041;-77
2022/05/13 02:20:57;;;;;;;2.95;2.20;;;10.10;99.90;;;;;;5014510;28;20052;-77
2022/05/13 02:23:23;;;;;;;7.47;2.22;;;10.00;99.90;;;;;;4998918;28;20037;-78
2022/05/13 02:25:49;;;;;;;5.97;2.33;;;10.00;99.90;;;;;;5006678;28;20056;-77
2022/05/13 02:28:16;;;;;;;3.55;2.40;;;10.00;99.90;;;;;;4997430;28;20037;-76
2022/05/13 02:30:41;;;;;;;4.10;2.25;;;10.00;99.90;;;;;;5014456;28;20124;-76
2022/05/13 02:33:07;;;;;;;6.65;2.88;;;10.00;99.90;;;;;;5014926;28;20128;-76
2022/05/13 02:35:33;;;;;;;5.75;3.15;;;10.00;99.90;;;;;;5000042;28;20368;-78
2022/05/13 02:37:59;;;;;;;5.00;2.45;;;10.10;99.90;;;;;;5000090;28;20073;-77
2022/05/13 02:41:11;;;;;;;3.50;2.20;;;10.10;99.90;;;;;;4999129;28;20041;-76
2022/05/13 02:43:12;;;;;;;3.80;2.28;;;10.10;99.90;;;;;;5014061;28;20391;-76
2022/05/13 02:45:38;;;;;;;6.22;2.30;;;10.00;99.90;;;;;;5022447;28;20045;-76
2022/05/13 02:48:04;;;;;;;5.35;2.78;;;10.00;99.90;;;;;;5029476;28;20160;-77
2022/05/13 02:50:30;;;;;;;6.03;2.20;;;10.10;99.90;;;;;;5015997;28;20052;-77
2022/05/13 02:52:56;;;;;;;6.15;2.35;;;10.00;99.90;;;;;;5000686;28;20041;-74
2022/05/13 02:55:22;;;;;;;5.38;2.92;;;10.10;99.90;;;;;;4999130;28;20486;-77
2022/05/13 02:57:47;;;;;;;4.97;2.42;;;10.00;99.90;;;;;;4997331;28;20116;-77
2022/05/13 03:00:14;;;;;;;6.10;2.53;;;10.00;99.90;;;;;;5014442;28;20049;-77
2022/05/13 03:02:39;;;;;;;5.18;2.50;;;10.00;99.90;;;;;;5016863;28;20048;-77
2022/05/13 03:05:06;;;;;;;4.97;2.17;;;10.10;99.90;;;;;;4997308;28;20038;-77
2022/05/13 03:07:32;;;;;;;5.07;2.33;;;10.10;99.90;;;;;;4997155;28;20452;-77
2022/05/13 03:09:58;;;;;;;4.13;2.30;;;10.10;99.90;;;;;;5005898;28;20033;-77
2022/05/13 03:12:23;;;;;;;3.58;2.30;;;10.10;99.90;;;;;;5013429;28;20103;-77
2022/05/13 03:14:49;;;;;;;6.00;2.55;;;10.10;99.90;;;;;;5013518;28;20041;-77
2022/05/13 03:17:15;;;;;;;7.13;2.88;;;10.10;99.90;;;;;;4996710;28;20507;-77
2022/05/13 03:19:40;;;;;;;7.15;2.92;;;10.00;99.90;;;;;;4997724;28;20368;-74
2022/05/13 03:22:07;;;;;;;5.72;2.00;;;10.10;99.90;;;;;;5014194;28;20091;-74
2022/05/13 03:24:33;;;;;;;5.38;2.50;;;10.00;99.90;;;;;;4997219;28;20095;-74
2022/05/13 03:27:00;;;;;;;3.60;2.00;;;10.00;99.90;;;;;;4996791;28;20068;-76
2022/05/13 03:29:25;;;;;;;5.13;2.22;;;10.00;99.90;;;;;;5012625;28;20083;-75
2022/05/13 03:31:51;;;;;;;6.40;2.40;;;10.00;99.90;;;;;;5009999;28;20041;-75
2022/05/13 03:34:17;;;;;;;6.95;2.60;;;10.10;99.90;;;;;;5022081;28;20488;-74
2022/05/13 03:36:42;;;;;;;4.05;2.60;;;10.10;99.90;;;;;;5025724;28;20049;-75
2022/05/13 03:39:08;;;;;;;6.00;2.45;;;10.10;99.90;;;;;;5013825;28;20124;-75
2022/05/13 03:41:34;;;;;;;7.05;2.65;;;10.00;99.90;;;;;;5013806;28;20037;-75
2022/05/13 03:44:08;;;;;;;5.38;2.20;;;10.00;99.90;;;;;;4997552;28;20049;-75
2022/05/13 03:46:34;;;;;;;6.25;2.50;;;10.00;99.90;;;;;;4997096;28;20098;-75
2022/05/13 03:49:01;;;;;;;9.20;3.00;;;10.10;99.90;;;;;;4996687;28;20491;-75
2022/05/13 03:51:28;;;;;;;3.72;2.30;;;10.00;99.90;;;;;;5013631;28;20084;-76
2022/05/13 03:53:54;;;;;;;5.68;2.17;;;10.10;99.90;;;;;;5000884;28;20033;-75
2022/05/13 03:56:20;;;;;;;7.95;2.15;;;10.10;99.90;;;;;;5005202;28;20037;-75
2022/05/13 03:58:46;;;;;;;7.55;2.05;;;10.10;99.90;;;;;;5012549;28;20507;-75
2022/05/13 04:01:11;;;;;;;7.07;2.95;;;10.20;99.90;;;;;;4996517;28;20037;-75
2022/05/13 04:03:37;;;;;;;5.22;2.30;;;10.20;99.90;;;;;;5005453;28;20467;-76
2022/05/13 04:08:56;;;;;;;9.48;2.60;;;10.30;99.90;;;;;;5016915;28;20373;-76
2022/05/13 04:11:29;;;;;;;7.82;2.70;;;10.30;99.90;;;;;;4995911;28;20048;-75
2022/05/13 04:16:43;;;;;;;8.20;3.20;;;10.40;99.90;;;;;;5007608;28;20186;-76
2022/05/13 04:19:11;;;;;;;6.82;2.90;;;10.50;99.90;;;;;;5012512;28;20076;-75
2022/05/13 04:21:38;;;;;;;4.40;2.55;;;10.40;99.90;;;;;;4997729;28;20121;-76
2022/05/13 04:24:06;;;;;;;7.40;2.90;;;10.60;99.90;;;;;;5011292;28;20033;-75
2022/05/13 04:26:32;;;;;;;7.80;2.50;;;10.60;99.90;;;;;;5013418;28;20142;-75
2022/05/13 04:28:59;;;;;;;7.60;3.03;;;10.70;99.90;;;;;;4996149;28;20052;-75
2022/05/13 04:31:32;;;;;;;10.43;3.15;;;10.70;99.90;;;;;;4996778;28;20041;-75
2022/05/13 04:33:59;;;;;;;5.97;3.30;;;10.70;99.90;;;;;;5005412;28;20037;-75
2022/05/13 04:36:26;;;;;;;7.20;2.60;;;10.80;99.90;;;;;;4995725;28;20049;-75
2022/05/13 04:38:53;;;;;;;7.53;2.80;;;10.80;99.90;;;;;;5017300;28;20088;-75
2022/05/13 04:44:05;;;;;;;6.70;2.78;;;10.80;99.90;;;;;;5024449;28;20052;-75
2022/05/13 04:46:32;;;;;;;7.00;3.05;;;10.80;99.90;;;;;;5015510;28;20044;-76
2022/05/13 04:48:58;;;;;;;7.57;2.83;;;10.90;99.90;;;;;;5001339;28;20100;-75
2022/05/13 04:51:24;;;;;;;9.73;3.58;;;10.90;99.90;;;;;;5008590;28;20446;-75
2022/05/13 04:53:53;;;;;;;5.32;2.83;;;10.90;99.90;;;;;;5013473;28;20060;-75
2022/05/13 04:56:20;;;;;;;9.05;3.25;;;10.90;99.90;;;;;;5024312;28;20255;-76
2022/05/13 04:58:46;;;;;;;8.23;3.20;;;11.00;99.90;;;;;;5000511;28;20038;-75
2022/05/13 05:01:13;;;;;;;9.32;3.03;;;11.00;99.90;;;;;;4998569;28;20117;-75
2022/05/13 05:03:42;;;;;;;7.93;3.30;;;11.10;99.90;;;;;;4999789;28;20045;-76
2022/05/13 05:06:11;;;;;;;6.97;3.03;;;11.10;99.90;;;;;;5007782;28;20030;-75
2022/05/13 05:08:38;;;;;;;8.85;3.40;;;11.20;99.90;;;;;;4999664;28;20076;-75
2022/05/13 05:11:05;;;;;;;6.88;3.00;;;11.20;99.90;;;;;;5000610;28;20038;-76
2022/05/13 05:13:44;;;;;;;10.57;3.42;;;11.30;99.90;;;;;;5001633;28;20124;-76
2022/05/13 05:16:10;;;;;;;8.98;3.00;;;11.30;99.90;;;;;;5001352;28;20037;-76
2022/05/13 05:18:37;;;;;;;10.57;3.47;;;11.40;99.90;;;;;;5016859;28;20041;-76
2022/05/13 05:21:04;;;;;;;8.00;3.13;;;11.50;99.90;;;;;;5016341;28;20045;-75
2022/05/13 05:23:32;;;;;;;9.75;3.53;;;11.60;99.90;;;;;;4999456;28;20037;-76
2022/05/13 05:25:58;;;;;;;6.13;2.90;;;11.70;99.90;;;;;;4999690;28;20025;-75
2022/05/13 05:28:26;;;;;;;5.82;3.53;;;11.80;99.90;;;;;;4999750;28;20412;-75
2022/05/13 05:30:52;;;;;;;8.82;3.20;;;12.00;99.90;;;;;;5033509;28;20075;-76
2022/05/13 05:33:18;;;;;;;7.13;3.00;;;12.10;99.90;;;;;;5000690;28;20411;-75
2022/05/13 05:35:44;;;;;;;8.00;2.88;;;12.20;99.90;;;;;;4999447;28;20561;-76
2022/05/13 05:38:10;;;;;;;8.95;2.90;;;12.30;99.90;;;;;;5007263;28;20120;-75
2022/05/13 05:40:38;;;;;;;8.40;3.30;;;12.50;99.90;;;;;;5003715;28;20120;-76
2022/05/13 05:43:06;;;;;;;10.07;3.05;;;12.60;99.90;;;;;;4999041;28;20057;-76
2022/05/13 05:45:32;;;;;;;9.85;3.20;;;12.80;99.90;;;;;;5007721;28;20040;-76
2022/05/13 05:47:58;;;;;;;8.13;2.72;;;12.90;99.90;;;;;;5016044;28;20123;-76
2022/05/13 05:50:24;;;;;;;6.75;3.33;;;13.00;99.90;;;;;;5000127;28;20041;-75
2022/05/13 05:52:50;;;;;;;8.93;3.13;;;13.10;99.90;;;;;;4999359;28;20042;-76
2022/05/13 05:58:09;;;;;;;6.03;2.60;;;13.20;99.90;;;;;;5015711;28;20183;-75
2022/05/13 06:00:41;;;;;;;8.15;3.13;;;13.20;99.90;;;;;;4996453;28;20045;-76
2022/05/13 06:03:07;;;;;;;5.35;2.72;;;13.20;99.90;;;;;;5013262;28;20048;-76
2022/05/13 06:05:35;;;;;;;4.90;2.15;;;13.30;99.90;;;;;;5013419;28;20033;-76
2022/05/13 06:08:02;;;;;;;7.70;2.72;;;13.30;99.90;;;;;;5007088;28;20040;-75
2022/05/13 06:10:38;;;;;;;5.85;2.50;;;13.40;99.90;;;;;;5007410;28;20041;-76
2022/05/13 06:13:14;;;;;;;5.38;1.95;;;13.50;99.90;;;;;;4998336;28;20041;-75
2022/05/13 06:15:43;;;;;;;7.20;2.85;;;13.60;99.90;;;;;;4998930;28;20037;-75
2022/05/13 06:18:08;;;;;;;4.30;2.00;;;13.90;99.90;;;;;;4997742;28;20091;-76
2022/05/13 06:20:34;;;;;;;4.78;2.30;;;14.10;99.90;;;;;;5028017;28;20447;-77
2022/05/13 06:23:00;;;;;;;6.88;2.00;;;14.10;99.90;;;;;;5001489;28;20049;-76
2022/05/13 06:25:26;;;;;;;6.82;3.10;;;14.10;99.90;;;;;;5013707;28;20517;-76
2022/05/13 06:27:55;;;;;;;6.63;2.53;;;14.10;99.90;;;;;;4995957;28;20053;-76
2022/05/13 06:30:26;;;;;;;5.72;2.28;;;14.20;99.90;;;;;;5007736;28;20065;-76
2022/05/13 06:32:53;;;;;;;6.38;2.15;;;14.30;99.90;;;;;;5021014;28;20445;-76
2022/05/13 06:35:20;;;;;;;4.00;1.70;;;14.40;99.90;;;;;;5015466;28;20088;-75
2022/05/13 06:37:46;;;;;;;3.92;1.65;;;14.40;99.90;;;;;;4999429;28;20041;-76
2022/05/13 06:40:12;;;;;;;5.15;1.60;;;14.30;99.90;;;;;;4995847;28;20349;-75
2022/05/13 06:42:37;;;;;;;6.05;2.42;;;14.10;99.90;;;;;;5014472;28;20107;-76
2022/05/13 06:45:07;;;;;;;3.10;1.42;;;14.10;99.90;;;;;;5015099;28;20048;-75
2022/05/13 06:47:33;;;;;;;5.05;1.50;;;14.00;99.90;;;;;;4996789;28;20523;-76
2022/05/13 06:50:03;;;;;;;5.95;1.35;;;14.00;99.90;;;;;;5010383;28;20041;-76
2022/05/13 06:52:32;;;;;;;4.35;1.60;;;14.10;99.90;;;;;;4996837;28;20099;-76
2022/05/13 06:54:58;;;;;;;3.92;1.30;;;14.40;99.90;;;;;;5014719;28;20048;-76
2022/05/13 06:57:24;;;;;;;6.43;1.55;;;14.50;99.90;;;;;;4994154;28;20447;-75
2022/05/13 06:59:50;;;;;;;4.00;1.77;;;14.70;99.90;;;;;;5012177;28;20443;-76
2022/05/13 07:02:17;;;;;;;4.70;1.50;;;14.80;99.90;;;;;;5013277;28;20037;-76
2022/05/13 07:04:45;;;;;;;5.18;1.50;;;14.80;99.90;;;;;;5022857;28;20505;-76
2022/05/13 07:07:15;;;;;;;3.47;1.20;;;14.90;99.90;;;;;;4996174;28;20044;-76
2022/05/13 07:09:41;;;;;;;4.63;1.40;;;14.80;99.90;;;;;;4996113;28;20034;-75
2022/05/13 07:12:08;;;;;;;3.92;1.70;;;14.90;99.90;;;;;;5014247;28;20526;-76
2022/05/13 07:14:35;;;;;;;4.35;1.70;;;15.00;99.90;;;;;;5005436;28;20124;-76
2022/05/13 07:17:04;;;;;;;5.07;1.23;;;15.00;99.90;;;;;;5000866;28;20042;-76
2022/05/13 07:19:39;;;;;;;3.42;1.40;;;15.00;99.90;;;;;;4996420;28;20056;-75
2022/05/13 07:22:07;;;;;;;4.10;1.50;;;15.00;99.90;;;;;;5010186;28;20045;-75
2022/05/13 07:24:37;;;;;;;3.20;1.10;;;14.90;99.90;;;;;;4996934;28;20033;-75
2022/05/13 07:27:06;;;;;;;3.72;1.20;;;14.90;99.90;;;;;;4995728;28;20037;-75
2022/05/13 07:29:34;;;;;;;3.20;1.20;;;14.90;99.90;;;;;;4996536;28;20080;-75
2022/05/13 07:32:00;;;;;;;2.83;1.33;;;15.00;99.90;;;;;;5008646;28;20489;-75
2022/05/13 07:34:26;;;;;;;3.65;1.08;;;15.10;99.90;;;;;;4997125;28;20041;-75
2022/05/13 07:36:54;;;;;;;3.17;1.05;;;15.40;99.90;;;;;;4997347;28;20041;-75
2022/05/13 07:42:08;;;;;;;2.35;1.42;;;15.80;99.90;;;;;;5012117;28;20210;-76
2022/05/13 07:44:37;;;;;;;5.68;1.10;;;16.00;99.90;;;;;;4996396;28;20040;-75
2022/05/13 07:47:05;;;;;;;6.18;1.00;;;16.10;99.90;;;;;;4996869;28;20048;-75
2022/05/13 07:49:33;;;;;;;2.97;1.30;;;16.20;99.90;;;;;;4997697;28;20119;-75
2022/05/13 07:52:05;;;;;;;3.30;1.10;;;16.30;99.90;;;;;;4995314;28;20125;-76
2022/05/13 07:54:30;;;;;;;2.33;0.98;;;16.40;99.90;;;;;;5011675;28;20041;-76
2022/05/13 07:56:56;;;;;;;4.35;1.15;;;16.50;99.90;;;;;;5006023;28;20039;-76
2022/05/13 07:59:24;;;;;;;3.13;1.00;;;16.60;99.90;;;;;;5013916;28;20099;-75
2022/05/13 08:01:55;;;;;;;2.90;0.90;;;16.60;99.90;;;;;;5012353;28;20565;-76
2022/05/13 08:04:42;;;;;;;3.95;1.25;;;16.60;99.90;;;;;;4997146;28;20034;-75
2022/05/13 08:07:07;;;;;;;4.18;1.00;;;16.60;99.90;;;;;;4993112;28;20508;-75
2022/05/13 08:09:33;;;;;;;3.30;1.10;;;16.80;99.90;;;;;;4996554;28;20048;-75
2022/05/13 08:11:59;;;;;;;3.72;0.90;;;17.00;99.90;;;;;;5011235;28;20124;-76
2022/05/13 08:14:28;;;;;;;2.42;1.00;;;17.30;99.90;;;;;;4995025;28;20132;-75
2022/05/13 08:16:53;;;;;;;3.50;1.17;;;17.70;99.90;;;;;;5022064;28;20041;-75
2022/05/13 08:19:25;;;;;;;4.82;1.23;;;18.10;99.90;;;;;;5015883;28;20049;-76
2022/05/13 08:21:53;;;;;;;3.25;1.00;;;18.20;99.90;;;;;;5004590;28;20037;-76
2022/05/13 08:24:25;;;;;;;2.20;0.88;;;18.50;99.90;;;;;;5013524;28;20045;-75
2022/05/13 08:26:54;;;;;;;4.18;1.10;;;18.60;99.90;;;;;;5011631;28;20038;-74
2022/05/13 08:29:23;;;;;;;2.33;0.88;;;18.90;99.90;;;;;;5011999;28;20033;-76
2022/05/13 08:31:50;;;;;;;2.85;0.85;;;19.50;99.90;;;;;;4996523;28;20069;-75
2022/05/13 08:34:31;;;;;;;3.92;1.15;;;20.10;99.90;;;;;;5012738;28;20107;-76
2022/05/13 08:37:03;;;;;;;5.68;1.20;;;20.20;99.90;;;;;;4995162;28;20042;-76
2022/05/13 08:39:29;;;;;;;2.67;1.08;;;20.10;99.90;;;;;;5011384;28;20045;-76
2022/05/13 08:42:11;;;;;;;3.00;1.10;;;19.70;99.90;;;;;;5009484;28;20045;-74
2022/05/13 08:44:53;;;;;;;3.75;1.00;;;19.30;99.90;;;;;;4995996;28;20045;-75
2022/05/13 08:47:30;;;;;;;3.25;1.25;;;19.00;99.90;;;;;;5005398;28;20073;-75
2022/05/13 08:50:14;;;;;;;4.32;1.10;;;19.00;99.90;;;;;;5030016;28;20068;-75
2022/05/13 08:53:10;;;;;;;2.85;0.95;;;18.90;99.60;;;;;;5004472;28;20068;-75
2022/05/13 08:55:51;;;;;;;2.83;0.93;;;18.80;99.90;;;;;;4994476;28;20029;-75
2022/05/13 08:58:40;;;;;;;2.13;0.98;;;19.00;97.80;;;;;;5022984;28;20048;-76
2022/05/13 09:01:14;;;;;;;3.95;1.02;;;19.70;97.10;;;;;;5004053;28;20468;-76
2022/05/13 09:03:56;;;;;;;1.88;1.00;;;20.70;97.60;;;;;;5013471;28;20041;-76
2022/05/13 09:06:49;;;;;;;4.07;1.08;;;21.70;93.50;;;;;;4997033;28;20400;-76
2022/05/13 09:09:20;;;;;;;2.63;0.73;;;22.20;87.70;;;;;;5014721;28;20044;-76
2022/05/13 09:12:13;;;;;;;3.55;0.80;;;22.80;93.20;;;;;;5013662;28;20046;-76
2022/05/13 09:14:52;;;;;;;3.45;0.88;;;23.40;90.60;;;;;;4994238;28;20099;-78
2022/05/13 09:17:36;;;;;;;3.15;0.90;;;23.90;80.00;;;;;;4995189;28;20044;-77
2022/05/13 09:20:21;;;;;;;4.40;0.95;;;23.40;81.70;;;;;;4984427;28;20084;-75
2022/05/13 09:22:58;;;;;;;2.97;1.00;;;22.60;73.90;;;;;;4998074;28;20105;-75
2022/05/13 09:25:53;;;;;;;2.08;0.95;;;22.30;82.70;;;;;;4998984;28;20128;-73
2022/05/13 09:28:20;;;;;;;3.03;1.02;;;21.70;78.30;;;;;;5006829;28;20057;-77
2022/05/13 09:30:58;;;;;;;3.22;1.00;;;21.10;82.50;;;;;;5030735;28;20403;-75
2022/05/13 09:33:39;;;;;;;4.05;0.95;;;20.40;83.10;;;;;;5000761;28;20442;-75
2022/05/13 09:36:12;;;;;;;2.22;1.02;;;20.30;89.40;;;;;;5034252;28;20030;-74
2022/05/13 09:38:48;;;;;;;;;;;20.70;89.70;;;;;;5000233;28;20080;-74
2022/05/13 09:41:48;;;;;;;1.40;0.80;;;21.10;77.60;;;;;;4999632;28;19928;-74
2022/05/13 09:44:29;;;;;;;3.53;0.93;;;21.20;84.40;;;;;;5013073;28;20050;-75
2022/05/13 09:47:24;;;;;;;2.72;0.80;;;21.40;84.60;;;;;;5015004;28;20060;-75
2022/05/13 09:49:55;;;;;;;2.08;0.82;;;21.40;78.70;;;;;;4996538;28;20034;-75
2022/05/13 09:52:33;;;;;;;4.00;0.85;;;21.40;82.90;;;;;;5013393;28;20142;-74
2022/05/13 09:55:34;;;;;;;4.03;0.80;;;21.70;80.00;;;;;;5027436;28;20104;-74
2022/05/13 09:58:02;;;;;;;3.17;0.80;;;22.20;81.40;;;;;;4991180;28;20053;-76
2022/05/13 10:00:31;;;;;;;4.75;1.27;;;22.80;83.60;;;;;;4991132;28;20038;-79
2022/05/13 10:03:21;;;;;;;2.08;0.90;;;23.20;70.00;;;;;;5029957;28;20459;-76
2022/05/13 10:06:11;;;;;;;1.38;0.80;;;23.40;67.00;;;;;;5010822;28;20442;-76
2022/05/13 10:08:52;;;;;;;2.60;0.88;;;23.50;68.70;;;;;;5007972;28;20500;-75
2022/05/13 10:14:28;;;;;;;1.95;0.90;;;23.80;72.70;;;;;;5023610;28;20487;-77
2022/05/13 10:17:03;;;;;;;3.88;0.93;;;23.70;59.60;;;;;;5012883;28;20049;-75
2022/05/13 10:19:38;;;;;;;4.25;0.82;;;23.40;68.00;;;;;;4997212;28;20051;-74
2022/05/13 10:22:24;;;;;;;3.28;1.10;;;23.00;66.60;;;;;;5013642;28;20442;-76
2022/05/13 10:25:11;;;;;;;1.67;0.90;;;22.30;67.30;;;;;;4998314;28;20052;-76
2022/05/13 10:27:45;;;;;;;3.83;1.10;;;22.00;71.50;;;;;;5012667;28;20029;-76
2022/05/13 10:30:48;;;;;;;2.83;1.35;;;22.30;71.30;;;;;;4997433;28;20037;-76
2022/05/13 10:33:42;;;;;;;3.13;1.50;;;22.80;68.30;;;;;;5023813;28;20512;-75
2022/05/13 10:36:31;;;;;;;4.55;1.50;;;23.10;70.00;;;;;;4997576;28;20041;-76
2022/05/13 10:39:13;;;;;;;3.25;1.33;;;22.90;66.20;;;;;;5004932;28;20530;-77
2022/05/13 10:42:13;;;;;;;3.83;1.40;;;22.30;66.90;;;;;;5015773;28;20060;-77
2022/05/13 10:45:15;;;;;;;4.70;1.40;;;22.00;70.70;;;;;;4996211;28;20046;-76
2022/05/13 10:48:11;;;;;;;3.80;1.48;;;21.50;68.50;;;;;;5003240;28;20040;-75
2022/05/13 10:51:19;;;;;;;3.33;1.30;;;21.10;69.80;;;;;;4998818;28;20442;-75
2022/05/13 10:54:03;;;;;;;2.15;1.10;;;21.50;74.20;;;;;;4961267;28;20441;-74
2022/05/13 10:56:45;;;;;;;2.28;1.10;;;22.20;73.50;;;;;;5010609;28;20127;-77
2022/05/13 10:59:50;;;;;;;3.50;1.33;;;22.70;68.10;;;;;;5031561;28;20411;-74
2022/05/13 11:02:59;;;;;;;3.42;1.08;;;23.00;64.30;;;;;;5001286;28;20059;-76
2022/05/13 11:05:40;;;;;;;3.35;1.10;;;22.60;60.80;;;;;;5011321;28;20042;-76
2022/05/13 11:08:25;;;;;;;4.60;1.33;;;21.90;64.80;;;;;;5011629;28;20045;-75
2022/05/13 11:11:23;;;;;;;5.13;1.83;;;21.20;66.30;;;;;;5031180;28;20514;-74
2022/05/13 11:14:29;;;;;;;3.47;1.48;;;20.80;69.80;;;;;;5002333;28;20041;-75
2022/05/13 11:17:24;;;;;;;3.95;1.58;;;20.80;75.30;;;;;;5001097;28;20060;-74
2022/05/13 11:20:20;;;;;;;5.70;2.00;;;21.70;75.30;;;;;;5007689;28;20482;-75
2022/05/13 11:22:45;;;;;;;2.85;1.50;;;22.40;71.40;;;;;;5004479;28;20045;-75
2022/05/13 11:28:22;;;;;;;4.05;1.40;;;22.80;65.30;;;;;;5023213;28;20124;-75
2022/05/13 11:31:10;;;;;;;3.58;1.20;;;22.90;65.20;;;;;;5009791;28;20041;-75
2022/05/13 11:34:02;;;;;;;3.15;1.20;;;22.90;65.20;;;;;;5008110;28;20037;-77
2022/05/13 11:36:49;;;;;;;2.75;1.10;;;23.30;61.00;;;;;;4981931;28;20037;-75
2022/05/13 11:39:42;;;;;;;3.55;1.40;;;23.20;61.40;;;;;;5024215;28;20443;-75
2022/05/13 11:43:18;;;;;;;1.65;0.85;;;22.90;61.90;;;;;;5032149;28;20084;-77
2022/05/13 11:45:49;;;;;;;3.08;1.25;;;22.80;63.10;;;;;;5022204;28;20045;-74
2022/05/13 11:48:35;;;;;;;2.30;1.00;;;23.50;67.40;;;;;;5022306;28;20056;-75
2022/05/13 11:51:16;;;;;;;3.85;1.30;;;23.80;59.80;;;;;;5027167;28;20107;-75
2022/05/13 11:53:41;;;;;;;3.92;1.30;;;23.60;58.40;;;;;;5031215;28;20038;-75
2022/05/13 11:56:29;;;;;;;4.80;1.40;;;23.10;61.50;;;;;;5031495;28;20484;-74
2022/05/13 11:59:13;;;;;;;2.63;1.10;;;23.10;60.80;;;;;;5018437;28;20068;-75
2022/05/13 12:01:48;;;;;;;4.25;1.60;;;23.10;61.70;;;;;;5024812;28;20049;-75
2022/05/13 12:04:14;;;;;;;3.88;1.10;;;22.70;60.70;;;;;;5005022;28;20156;-75
2022/05/13 12:06:57;;;;;;;2.10;1.23;;;22.70;63.60;;;;;;5020332;28;20124;-75
2022/05/13 12:09:36;;;;;;;2.72;1.30;;;23.30;64.10;;;;;;4995562;28;20061;-75
2022/05/13 12:12:09;;;;;;;2.83;1.10;;;23.80;59.10;;;;;;5005067;28;20041;-75
2022/05/13 12:14:42;;;;;;;3.30;1.17;;;24.10;58.70;;;;;;4997896;28;20037;-75
2022/05/13 12:17:37;;;;;;;4.00;1.45;;;24.50;56.70;;;;;;5003776;28;20045;-74
2022/05/13 12:20:36;;;;;;;1.52;1.15;;;25.10;57.80;;;;;;5000866;28;20051;-75
2022/05/13 12:23:23;;;;;;;3.65;0.93;;;25.40;56.70;;;;;;5005098;28;20041;-76
2022/05/13 12:25:51;;;;;;;3.60;0.98;;;25.60;54.20;;;;;;5004283;28;20049;-75
2022/05/13 12:28:27;;;;;;;1.98;0.90;;;25.80;53.70;;;;;;5020623;28;20038;-75
2022/05/13 12:31:34;;;;;;;2.65;1.00;;;25.60;53.60;;;;;;5002456;28;20099;-75
2022/05/13 12:40:04;;;;;;;2.65;1.08;;;25.10;52.80;;;;;;5022511;28;20038;-75
2022/05/13 12:42:46;;;;;;;2.35;0.70;;;25.40;53.40;;;;;;4987647;28;20052;-75
2022/05/13 12:45:38;;;;;;;2.92;1.02;;;25.70;52.40;;;;;;5005468;28;20038;-75
2022/05/13 12:48:09;;;;;;;2.20;0.85;;;26.30;51.70;;;;;;5007351;28;20060;-76
2022/05/13 12:51:18;;;;;;;2.67;0.93;;;26.70;50.70;;;;;;5001037;28;20190;-75
2022/05/13 12:53:52;;;;;;;3.95;0.80;;;26.30;48.70;;;;;;5003093;28;20052;-75
2022/05/13 12:56:56;;;;;;;3.88;1.10;;;25.40;49.80;;;;;;5015751;28;20045;-74
2022/05/13 12:59:36;;;;;;;3.50;0.98;;;25.00;50.10;;;;;;4946961;28;20046;-75
2022/05/13 13:02:06;;;;;;;2.60;0.80;;;24.80;51.20;;;;;;4998804;28;20046;-76
2022/05/13 13:04:49;;;;;;;3.20;1.02;;;24.70;51.60;;;;;;4997964;28;20507;-75
2022/05/13 13:07:27;;;;;;;3.03;0.90;;;24.60;52.90;;;;;;5006187;28;20038;-77
2022/05/13 13:09:53;;;;;;;3.08;0.98;;;24.90;53.20;;;;;;4998778;28;20057;-76
2022/05/13 13:13:00;;;;;;;3.53;0.90;;;24.90;52.30;;;;;;5016971;28;20352;-76
2022/05/13 13:15:48;;;;;;;6.93;1.10;;;24.70;52.10;;;;;;5025669;28;20605;-78
2022/05/13 13:18:17;;;;;;;3.55;1.13;;;24.30;53.20;;;;;;5014265;28;20526;-76
2022/05/13 13:21:16;;;;;;;3.85;1.13;;;24.20;53.20;;;;;;4997127;28;20044;-77
2022/05/13 13:23:44;;;;;;;4.45;1.17;;;24.10;52.60;;;;;;5018971;28;20464;-78
2022/05/13 13:26:14;;;;;;;3.13;1.08;;;24.00;53.00;;;;;;5001846;28;20140;-78
2022/05/13 13:28:43;;;;;;;3.20;0.98;;;23.80;53.40;;;;;;5001353;28;20057;-79
2022/05/13 13:31:17;;;;;;;3.10;1.10;;;23.80;53.50;;;;;;5000858;28;20611;-77
2022/05/13 13:33:49;;;;;;;2.05;0.90;;;23.70;53.60;;;;;;5007053;28;20072;-78
2022/05/13 13:36:27;;;;;;;4.22;1.30;;;23.60;54.10;;;;;;5010565;28;20045;-76
2022/05/13 13:38:58;;;;;;;4.97;1.27;;;23.60;55.20;;;;;;5018090;28;20416;-77
2022/05/13 13:41:33;;;;;;;2.85;1.00;;;23.60;54.70;;;;;;5002376;28;20049;-78
2022/05/13 13:44:08;;;;;;;3.53;1.15;;;23.60;55.60;;;;;;5001248;28;20050;-76
2022/05/13 13:46:43;;;;;;;4.38;1.00;;;23.70;55.80;;;;;;5010188;28;20037;-77